sensor_id;sensor_type;location;lat;lon;timestamp;P1;durP1;ratioP1;P2;durP2;ratioP2
68353;SDS011;55274;43.060;25.618;2024-03-23T00:55:44;19.95;;;7.00;;
68353;SDS011;55274;43.060;25.618;2024-03-23T00:58:10;16.08;;;6.72;;
68353;SDS011;55274;43.060;25.618;2024-03-23T01:00:36;16.02;;;7.15;;
68353;SDS011;55274;43.060;25.618;2024-03-23T01:03:01;13.95;;;7.03;;
68353;SDS011;55274;43.060;25.618;2024-03-23T01:05:27;18.30;;;7.15;;
68353;SDS011;55274;43.060;25.618;2024-03-23T01:07:53;16.10;;;7.32;;
68353;SDS011;55274;43.060;25.618;2024-03-23T01:10:19;16.60;;;6.68;;
68353;SDS011;55274;43.060;25.618;2024-03-23T01:12:44;30.50;;;7.78;;
68353;SDS011;55274;43.060;25.618;2024-03-23T01:15:11;16.63;;;7.28;;
68353;SDS011;55274;43.060;25.618;2024-03-23T01:17:36;21.40;;;6.93;;
68353;SDS011;55274;43.060;25.618;2024-03-23T01:20:02;16.95;;;7.32;;
68353;SDS011;55274;43.060;25.618;2024-03-23T01:22:29;20.08;;;7.28;;
68353;SDS011;55274;43.060;25.618;2024-03-23T01:24:55;13.93;;;6.03;;
68353;SDS011;55274;43.060;25.618;2024-03-23T01:27:20;24.88;;;6.55;;
68353;SDS011;55274;43.060;25.618;2024-03-23T01:29:46;17.40;;;6.43;;
68353;SDS011;55274;43.060;25.618;2024-03-23T01:32:12;16.15;;;5.85;;
68353;SDS011;55274;43.060;25.618;2024-03-23T01:34:38;19.58;;;7.55;;
68353;SDS011;55274;43.060;25.618;2024-03-23T01:37:04;13.90;;;6.40;;
68353;SDS011;55274;43.060;25.618;2024-03-23T01:39:29;21.20;;;6.78;;
68353;SDS011;55274;43.060;25.618;2024-03-23T01:41:55;13.20;;;6.35;;
68353;SDS011;55274;43.060;25.618;2024-03-23T01:44:21;18.50;;;7.25;;
68353;SDS011;55274;43.060;25.618;2024-03-23T01:46:47;21.48;;;7.15;;
68353;SDS011;55274;43.060;25.618;2024-03-23T01:49:13;17.75;;;6.72;;
68353;SDS011;55274;43.060;25.618;2024-03-23T01:51:39;14.88;;;7.32;;
68353;SDS011;55274;43.060;25.618;2024-03-23T01:54:06;20.65;;;7.00;;
68353;SDS011;55274;43.060;25.618;2024-03-23T01:56:33;16.30;;;6.93;;
68353;SDS011;55274;43.060;25.618;2024-03-23T01:59:02;19.63;;;6.60;;
68353;SDS011;55274;43.060;25.618;2024-03-23T02:01:28;16.95;;;6.30;;
68353;SDS011;55274;43.060;25.618;2024-03-23T02:03:55;20.13;;;7.50;;
68353;SDS011;55274;43.060;25.618;2024-03-23T02:06:20;20.38;;;7.57;;
68353;SDS011;55274;43.060;25.618;2024-03-23T02:08:47;15.68;;;7.15;;
68353;SDS011;55274;43.060;25.618;2024-03-23T02:11:13;22.25;;;8.25;;
68353;SDS011;55274;43.060;25.618;2024-03-23T02:13:39;18.40;;;7.50;;
68353;SDS011;55274;43.060;25.618;2024-03-23T02:16:05;18.67;;;7.60;;
68353;SDS011;55274;43.060;25.618;2024-03-23T02:18:31;15.65;;;7.13;;
68353;SDS011;55274;43.060;25.618;2024-03-23T02:20:58;16.20;;;7.38;;
68353;SDS011;55274;43.060;25.618;2024-03-23T02:23:23;17.60;;;7.32;;
68353;SDS011;55274;43.060;25.618;2024-03-23T02:25:52;21.08;;;7.47;;
68353;SDS011;55274;43.060;25.618;2024-03-23T02:28:20;20.25;;;7.60;;
68353;SDS011;55274;43.060;25.618;2024-03-23T02:30:48;15.65;;;6.38;;
68353;SDS011;55274;43.060;25.618;2024-03-23T02:33:14;18.45;;;7.60;;
68353;SDS011;55274;43.060;25.618;2024-03-23T02:35:40;19.00;;;7.30;;
68353;SDS011;55274;43.060;25.618;2024-03-23T02:38:06;17.73;;;7.78;;
68353;SDS011;55274;43.060;25.618;2024-03-23T02:40:32;17.00;;;7.40;;
68353;SDS011;55274;43.060;25.618;2024-03-23T02:42:57;20.98;;;7.50;;
68353;SDS011;55274;43.060;25.618;2024-03-23T02:45:23;17.67;;;7.18;;
68353;SDS011;55274;43.060;25.618;2024-03-23T02:47:49;18.05;;;6.80;;
68353;SDS011;55274;43.060;25.618;2024-03-23T02:50:18;14.57;;;7.07;;
68353;SDS011;55274;43.060;25.618;2024-03-23T02:52:44;14.43;;;6.35;;
68353;SDS011;55274;43.060;25.618;2024-03-23T02:55:10;16.60;;;6.63;;
68353;SDS011;55274;43.060;25.618;2024-03-23T02:57:36;17.48;;;6.57;;
68353;SDS011;55274;43.060;25.618;2024-03-23T03:00:01;16.85;;;7.05;;
68353;SDS011;55274;43.060;25.618;2024-03-23T03:02:27;17.63;;;7.43;;
68353;SDS011;55274;43.060;25.618;2024-03-23T03:04:53;15.07;;;6.60;;
68353;SDS011;55274;43.060;25.618;2024-03-23T03:07:19;16.75;;;6.30;;
68353;SDS011;55274;43.060;25.618;2024-03-23T03:09:45;16.85;;;6.30;;
68353;SDS011;55274;43.060;25.618;2024-03-23T03:12:10;15.55;;;5.55;;
68353;SDS011;55274;43.060;25.618;2024-03-23T03:14:36;12.98;;;5.78;;
68353;SDS011;55274;43.060;25.618;2024-03-23T03:17:02;16.35;;;6.18;;
68353;SDS011;55274;43.060;25.618;2024-03-23T03:19:28;27.60;;;8.05;;
68353;SDS011;55274;43.060;25.618;2024-03-23T03:21:54;17.33;;;6.82;;
68353;SDS011;55274;43.060;25.618;2024-03-23T03:24:20;14.30;;;6.07;;
68353;SDS011;55274;43.060;25.618;2024-03-23T03:26:46;11.52;;;5.45;;
68353;SDS011;55274;43.060;25.618;2024-03-23T03:29:12;23.55;;;6.40;;
68353;SDS011;55274;43.060;25.618;2024-03-23T03:31:38;19.95;;;6.05;;
68353;SDS011;55274;43.060;25.618;2024-03-23T03:34:04;18.23;;;6.68;;
68353;SDS011;55274;43.060;25.618;2024-03-23T03:36:30;16.60;;;7.03;;
68353;SDS011;55274;43.060;25.618;2024-03-23T03:38:55;15.52;;;5.97;;
68353;SDS011;55274;43.060;25.618;2024-03-23T03:41:21;14.23;;;6.93;;
68353;SDS011;55274;43.060;25.618;2024-03-23T03:43:47;22.55;;;6.35;;
68353;SDS011;55274;43.060;25.618;2024-03-23T03:46:12;23.98;;;7.35;;
68353;SDS011;55274;43.060;25.618;2024-03-23T03:48:38;18.25;;;6.93;;
68353;SDS011;55274;43.060;25.618;2024-03-23T03:51:04;13.60;;;6.50;;
68353;SDS011;55274;43.060;25.618;2024-03-23T03:53:30;17.33;;;6.47;;
68353;SDS011;55274;43.060;25.618;2024-03-23T03:55:56;18.20;;;6.80;;
68353;SDS011;55274;43.060;25.618;2024-03-23T03:58:26;19.60;;;6.20;;
68353;SDS011;55274;43.060;25.618;2024-03-23T04:00:51;15.52;;;6.70;;
68353;SDS011;55274;43.060;25.618;2024-03-23T04:03:17;15.00;;;6.65;;
68353;SDS011;55274;43.060;25.618;2024-03-23T04:05:43;17.20;;;6.38;;
68353;SDS011;55274;43.060;25.618;2024-03-23T04:08:19;16.42;;;6.28;;
68353;SDS011;55274;43.060;25.618;2024-03-23T04:10:45;45.45;;;8.10;;
68353;SDS011;55274;43.060;25.618;2024-03-23T04:13:11;27.90;;;8.10;;
68353;SDS011;55274;43.060;25.618;2024-03-23T04:15:40;16.52;;;7.38;;
68353;SDS011;55274;43.060;25.618;2024-03-23T04:18:06;41.08;;;8.90;;
68353;SDS011;55274;43.060;25.618;2024-03-23T04:20:32;21.10;;;7.80;;
68353;SDS011;55274;43.060;25.618;2024-03-23T04:22:58;24.73;;;6.85;;
68353;SDS011;55274;43.060;25.618;2024-03-23T04:25:24;20.98;;;7.25;;
68353;SDS011;55274;43.060;25.618;2024-03-23T04:27:50;16.30;;;6.88;;
68353;SDS011;55274;43.060;25.618;2024-03-23T04:30:16;18.38;;;6.18;;
68353;SDS011;55274;43.060;25.618;2024-03-23T04:32:42;16.42;;;7.20;;
68353;SDS011;55274;43.060;25.618;2024-03-23T04:35:08;16.42;;;6.80;;
68353;SDS011;55274;43.060;25.618;2024-03-23T04:37:38;21.10;;;7.88;;
68353;SDS011;55274;43.060;25.618;2024-03-23T04:40:07;20.85;;;7.32;;
68353;SDS011;55274;43.060;25.618;2024-03-23T04:42:33;29.48;;;7.93;;
68353;SDS011;55274;43.060;25.618;2024-03-23T04:44:59;24.30;;;7.13;;
68353;SDS011;55274;43.060;25.618;2024-03-23T04:47:25;15.40;;;6.82;;
68353;SDS011;55274;43.060;25.618;2024-03-23T04:49:51;14.05;;;6.38;;
68353;SDS011;55274;43.060;25.618;2024-03-23T04:52:17;17.65;;;5.85;;
68353;SDS011;55274;43.060;25.618;2024-03-23T04:54:43;22.80;;;7.00;;
68353;SDS011;55274;43.060;25.618;2024-03-23T04:57:10;15.38;;;7.50;;
68353;SDS011;55274;43.060;25.618;2024-03-23T04:59:36;17.38;;;6.75;;
68353;SDS011;55274;43.060;25.618;2024-03-23T05:02:02;23.67;;;6.72;;
68353;SDS011;55274;43.060;25.618;2024-03-23T05:04:28;24.10;;;6.88;;
68353;SDS011;55274;43.060;25.618;2024-03-23T05:06:53;12.98;;;6.10;;
68353;SDS011;55274;43.060;25.618;2024-03-23T05:09:19;14.15;;;6.53;;
68353;SDS011;55274;43.060;25.618;2024-03-23T05:11:45;12.23;;;6.03;;
68353;SDS011;55274;43.060;25.618;2024-03-23T05:14:14;16.98;;;6.88;;
68353;SDS011;55274;43.060;25.618;2024-03-23T05:16:40;19.80;;;6.53;;
68353;SDS011;55274;43.060;25.618;2024-03-23T05:19:06;13.95;;;6.47;;
68353;SDS011;55274;43.060;25.618;2024-03-23T05:21:32;29.92;;;7.57;;
68353;SDS011;55274;43.060;25.618;2024-03-23T05:23:57;16.63;;;7.15;;
68353;SDS011;55274;43.060;25.618;2024-03-23T05:26:23;19.77;;;7.55;;
68353;SDS011;55274;43.060;25.618;2024-03-23T05:28:49;21.15;;;8.70;;
68353;SDS011;55274;43.060;25.618;2024-03-23T05:31:28;23.48;;;7.72;;
68353;SDS011;55274;43.060;25.618;2024-03-23T05:33:55;16.50;;;6.47;;
68353;SDS011;55274;43.060;25.618;2024-03-23T05:36:21;17.70;;;6.70;;
68353;SDS011;55274;43.060;25.618;2024-03-23T05:38:48;15.93;;;7.45;;
68353;SDS011;55274;43.060;25.618;2024-03-23T05:41:14;17.70;;;7.38;;
68353;SDS011;55274;43.060;25.618;2024-03-23T05:43:40;23.05;;;9.77;;
68353;SDS011;55274;43.060;25.618;2024-03-23T05:46:06;26.70;;;10.27;;
68353;SDS011;55274;43.060;25.618;2024-03-23T05:48:32;34.80;;;11.65;;
68353;SDS011;55274;43.060;25.618;2024-03-23T05:50:58;33.25;;;13.13;;
68353;SDS011;55274;43.060;25.618;2024-03-23T05:53:25;34.30;;;14.98;;
68353;SDS011;55274;43.060;25.618;2024-03-23T05:55:51;32.13;;;13.38;;
68353;SDS011;55274;43.060;25.618;2024-03-23T05:58:25;22.02;;;10.98;;
68353;SDS011;55274;43.060;25.618;2024-03-23T06:00:56;29.38;;;11.90;;
68353;SDS011;55274;43.060;25.618;2024-03-23T06:03:26;69.47;;;16.40;;
68353;SDS011;55274;43.060;25.618;2024-03-23T06:05:52;46.63;;;14.65;;
68353;SDS011;55274;43.060;25.618;2024-03-23T06:08:19;36.65;;;13.93;;
68353;SDS011;55274;43.060;25.618;2024-03-23T06:10:48;46.67;;;15.52;;
68353;SDS011;55274;43.060;25.618;2024-03-23T06:13:15;61.10;;;17.77;;
68353;SDS011;55274;43.060;25.618;2024-03-23T06:15:42;37.22;;;15.63;;
68353;SDS011;55274;43.060;25.618;2024-03-23T06:18:08;51.05;;;21.65;;
68353;SDS011;55274;43.060;25.618;2024-03-23T06:20:34;52.92;;;21.75;;
68353;SDS011;55274;43.060;25.618;2024-03-23T06:23:00;47.00;;;18.52;;
68353;SDS011;55274;43.060;25.618;2024-03-23T06:25:27;48.95;;;17.67;;
68353;SDS011;55274;43.060;25.618;2024-03-23T06:27:53;64.00;;;24.27;;
68353;SDS011;55274;43.060;25.618;2024-03-23T06:30:18;68.15;;;27.15;;
68353;SDS011;55274;43.060;25.618;2024-03-23T06:32:44;44.00;;;18.92;;
68353;SDS011;55274;43.060;25.618;2024-03-23T06:35:10;45.13;;;14.88;;
68353;SDS011;55274;43.060;25.618;2024-03-23T06:37:35;31.67;;;12.35;;
68353;SDS011;55274;43.060;25.618;2024-03-23T06:40:02;35.85;;;13.20;;
68353;SDS011;55274;43.060;25.618;2024-03-23T06:42:29;32.72;;;13.02;;
68353;SDS011;55274;43.060;25.618;2024-03-23T06:44:55;32.15;;;14.13;;
68353;SDS011;55274;43.060;25.618;2024-03-23T06:47:21;32.30;;;13.80;;
68353;SDS011;55274;43.060;25.618;2024-03-23T06:49:47;33.50;;;13.32;;
68353;SDS011;55274;43.060;25.618;2024-03-23T06:52:13;28.85;;;12.43;;
68353;SDS011;55274;43.060;25.618;2024-03-23T06:54:38;25.83;;;12.45;;
68353;SDS011;55274;43.060;25.618;2024-03-23T06:57:04;26.40;;;12.93;;
68353;SDS011;55274;43.060;25.618;2024-03-23T06:59:30;30.73;;;11.43;;
68353;SDS011;55274;43.060;25.618;2024-03-23T07:01:56;26.65;;;11.65;;
68353;SDS011;55274;43.060;25.618;2024-03-23T07:04:21;27.67;;;12.30;;
68353;SDS011;55274;43.060;25.618;2024-03-23T07:06:47;22.58;;;10.98;;
68353;SDS011;55274;43.060;25.618;2024-03-23T07:09:13;23.77;;;11.40;;
68353;SDS011;55274;43.060;25.618;2024-03-23T07:11:38;22.60;;;10.45;;
68353;SDS011;55274;43.060;25.618;2024-03-23T07:14:04;21.38;;;9.55;;
68353;SDS011;55274;43.060;25.618;2024-03-23T07:16:30;32.55;;;12.23;;
68353;SDS011;55274;43.060;25.618;2024-03-23T07:18:56;58.70;;;23.58;;
68353;SDS011;55274;43.060;25.618;2024-03-23T07:21:22;52.13;;;19.80;;
68353;SDS011;55274;43.060;25.618;2024-03-23T07:23:48;36.90;;;17.38;;
68353;SDS011;55274;43.060;25.618;2024-03-23T07:26:13;52.17;;;22.38;;
68353;SDS011;55274;43.060;25.618;2024-03-23T07:28:40;51.55;;;22.20;;
68353;SDS011;55274;43.060;25.618;2024-03-23T07:31:12;57.13;;;23.55;;
68353;SDS011;55274;43.060;25.618;2024-03-23T07:33:43;45.45;;;19.67;;
68353;SDS011;55274;43.060;25.618;2024-03-23T07:36:10;70.80;;;22.95;;
68353;SDS011;55274;43.060;25.618;2024-03-23T07:38:35;29.08;;;12.13;;
68353;SDS011;55274;43.060;25.618;2024-03-23T07:41:05;19.55;;;9.25;;
68353;SDS011;55274;43.060;25.618;2024-03-23T07:43:31;29.75;;;11.70;;
68353;SDS011;55274;43.060;25.618;2024-03-23T07:45:57;30.42;;;12.27;;
68353;SDS011;55274;43.060;25.618;2024-03-23T07:48:24;23.15;;;10.23;;
68353;SDS011;55274;43.060;25.618;2024-03-23T07:50:59;26.58;;;10.20;;
68353;SDS011;55274;43.060;25.618;2024-03-23T07:53:27;13.68;;;7.00;;
68353;SDS011;55274;43.060;25.618;2024-03-23T07:55:57;8.52;;;4.60;;
68353;SDS011;55274;43.060;25.618;2024-03-23T07:58:24;21.70;;;5.20;;
68353;SDS011;55274;43.060;25.618;2024-03-23T08:00:51;10.10;;;4.07;;
68353;SDS011;55274;43.060;25.618;2024-03-23T08:03:18;9.07;;;4.00;;
68353;SDS011;55274;43.060;25.618;2024-03-23T08:05:43;9.63;;;4.40;;
68353;SDS011;55274;43.060;25.618;2024-03-23T08:08:09;9.95;;;4.00;;
68353;SDS011;55274;43.060;25.618;2024-03-23T08:10:36;9.98;;;3.88;;
68353;SDS011;55274;43.060;25.618;2024-03-23T08:13:22;7.47;;;3.45;;
68353;SDS011;55274;43.060;25.618;2024-03-23T08:15:47;5.28;;;3.05;;
68353;SDS011;55274;43.060;25.618;2024-03-23T08:18:13;6.43;;;2.72;;
68353;SDS011;55274;43.060;25.618;2024-03-23T08:20:40;7.47;;;3.05;;
68353;SDS011;55274;43.060;25.618;2024-03-23T08:23:06;8.30;;;2.63;;
68353;SDS011;55274;43.060;25.618;2024-03-23T08:25:33;4.30;;;2.60;;
68353;SDS011;55274;43.060;25.618;2024-03-23T08:27:59;7.18;;;2.90;;
68353;SDS011;55274;43.060;25.618;2024-03-23T08:30:26;5.07;;;2.67;;
68353;SDS011;55274;43.060;25.618;2024-03-23T08:32:53;3.83;;;1.90;;
68353;SDS011;55274;43.060;25.618;2024-03-23T08:35:19;3.28;;;1.98;;
68353;SDS011;55274;43.060;25.618;2024-03-23T08:37:45;3.38;;;2.35;;
68353;SDS011;55274;43.060;25.618;2024-03-23T08:40:11;5.35;;;1.90;;
68353;SDS011;55274;43.060;25.618;2024-03-23T08:42:37;7.53;;;2.33;;
68353;SDS011;55274;43.060;25.618;2024-03-23T08:45:03;6.45;;;2.13;;
68353;SDS011;55274;43.060;25.618;2024-03-23T08:47:29;23.13;;;2.90;;
68353;SDS011;55274;43.060;25.618;2024-03-23T08:49:59;10.52;;;2.00;;
68353;SDS011;55274;43.060;25.618;2024-03-23T08:52:24;5.47;;;2.03;;
68353;SDS011;55274;43.060;25.618;2024-03-23T08:54:53;3.85;;;1.83;;
68353;SDS011;55274;43.060;25.618;2024-03-23T08:57:19;7.70;;;1.83;;
68353;SDS011;55274;43.060;25.618;2024-03-23T08:59:45;6.00;;;1.75;;
68353;SDS011;55274;43.060;25.618;2024-03-23T09:02:10;4.55;;;1.80;;
68353;SDS011;55274;43.060;25.618;2024-03-23T09:04:36;6.63;;;1.92;;
68353;SDS011;55274;43.060;25.618;2024-03-23T09:07:02;2.80;;;1.33;;
68353;SDS011;55274;43.060;25.618;2024-03-23T09:09:28;3.70;;;1.45;;
68353;SDS011;55274;43.060;25.618;2024-03-23T09:11:53;4.20;;;1.70;;
68353;SDS011;55274;43.060;25.618;2024-03-23T09:14:19;2.70;;;1.70;;
68353;SDS011;55274;43.060;25.618;2024-03-23T09:16:45;8.15;;;1.80;;
68353;SDS011;55274;43.060;25.618;2024-03-23T09:19:11;3.40;;;1.30;;
68353;SDS011;55274;43.060;25.618;2024-03-23T09:21:36;2.58;;;1.40;;
68353;SDS011;55274;43.060;25.618;2024-03-23T09:24:02;4.22;;;1.40;;
68353;SDS011;55274;43.060;25.618;2024-03-23T09:26:28;6.82;;;1.70;;
68353;SDS011;55274;43.060;25.618;2024-03-23T09:28:54;2.60;;;1.73;;
68353;SDS011;55274;43.060;25.618;2024-03-23T09:31:20;5.32;;;1.52;;
68353;SDS011;55274;43.060;25.618;2024-03-23T09:33:47;3.67;;;1.40;;
68353;SDS011;55274;43.060;25.618;2024-03-23T09:36:13;2.58;;;1.40;;
68353;SDS011;55274;43.060;25.618;2024-03-23T09:38:38;3.13;;;1.35;;
68353;SDS011;55274;43.060;25.618;2024-03-23T09:41:09;3.05;;;1.50;;
68353;SDS011;55274;43.060;25.618;2024-03-23T09:43:35;3.50;;;1.50;;
68353;SDS011;55274;43.060;25.618;2024-03-23T09:46:01;3.13;;;1.52;;
68353;SDS011;55274;43.060;25.618;2024-03-23T09:48:28;3.25;;;1.60;;
68353;SDS011;55274;43.060;25.618;2024-03-23T09:50:53;2.25;;;1.48;;
68353;SDS011;55274;43.060;25.618;2024-03-23T09:53:19;10.95;;;2.40;;
68353;SDS011;55274;43.060;25.618;2024-03-23T09:55:47;4.57;;;1.35;;
68353;SDS011;55274;43.060;25.618;2024-03-23T09:58:16;3.42;;;1.60;;
68353;SDS011;55274;43.060;25.618;2024-03-23T10:00:43;2.80;;;1.60;;
68353;SDS011;55274;43.060;25.618;2024-03-23T10:03:09;7.35;;;1.90;;
68353;SDS011;55274;43.060;25.618;2024-03-23T10:05:37;4.13;;;1.80;;
68353;SDS011;55274;43.060;25.618;2024-03-23T10:10:40;3.25;;;1.50;;
68353;SDS011;55274;43.060;25.618;2024-03-23T10:13:07;2.75;;;1.30;;
68353;SDS011;55274;43.060;25.618;2024-03-23T10:15:36;3.75;;;1.40;;
68353;SDS011;55274;43.060;25.618;2024-03-23T10:18:18;2.78;;;1.20;;
68353;SDS011;55274;43.060;25.618;2024-03-23T10:20:51;2.92;;;1.50;;
68353;SDS011;55274;43.060;25.618;2024-03-23T10:23:41;1.80;;;1.10;;
68353;SDS011;55274;43.060;25.618;2024-03-23T10:31:24;3.97;;;1.17;;
68353;SDS011;55274;43.060;25.618;2024-03-23T10:33:50;3.25;;;1.23;;
68353;SDS011;55274;43.060;25.618;2024-03-23T10:36:19;4.20;;;1.50;;
68353;SDS011;55274;43.060;25.618;2024-03-23T10:38:46;3.40;;;1.40;;
68353;SDS011;55274;43.060;25.618;2024-03-23T10:41:12;2.47;;;1.25;;
68353;SDS011;55274;43.060;25.618;2024-03-23T10:43:39;5.68;;;1.40;;
68353;SDS011;55274;43.060;25.618;2024-03-23T10:46:05;2.85;;;1.40;;
68353;SDS011;55274;43.060;25.618;2024-03-23T10:48:31;4.47;;;1.63;;
68353;SDS011;55274;43.060;25.618;2024-03-23T10:50:58;19.38;;;2.10;;
68353;SDS011;55274;43.060;25.618;2024-03-23T10:53:27;2.33;;;1.20;;
68353;SDS011;55274;43.060;25.618;2024-03-23T10:55:54;4.72;;;1.30;;
68353;SDS011;55274;43.060;25.618;2024-03-23T10:58:31;6.00;;;1.95;;
68353;SDS011;55274;43.060;25.618;2024-03-23T11:00:57;6.10;;;1.90;;
68353;SDS011;55274;43.060;25.618;2024-03-23T11:03:30;6.60;;;1.70;;
68353;SDS011;55274;43.060;25.618;2024-03-23T11:06:00;4.05;;;1.48;;
68353;SDS011;55274;43.060;25.618;2024-03-23T11:08:35;6.95;;;1.20;;
68353;SDS011;55274;43.060;25.618;2024-03-23T11:13:50;2.45;;;1.33;;
68353;SDS011;55274;43.060;25.618;2024-03-23T11:16:25;2.20;;;1.50;;
68353;SDS011;55274;43.060;25.618;2024-03-23T11:22:01;2.30;;;1.52;;
68353;SDS011;55274;43.060;25.618;2024-03-23T11:24:31;2.88;;;1.50;;
68353;SDS011;55274;43.060;25.618;2024-03-23T11:26:57;6.47;;;1.80;;
68353;SDS011;55274;43.060;25.618;2024-03-23T11:29:26;4.47;;;2.28;;
68353;SDS011;55274;43.060;25.618;2024-03-23T11:31:52;3.70;;;2.05;;
68353;SDS011;55274;43.060;25.618;2024-03-23T11:34:21;2.50;;;1.63;;
68353;SDS011;55274;43.060;25.618;2024-03-23T11:36:47;3.70;;;1.50;;
68353;SDS011;55274;43.060;25.618;2024-03-23T11:39:19;2.28;;;1.35;;
68353;SDS011;55274;43.060;25.618;2024-03-23T11:41:48;3.53;;;1.50;;
68353;SDS011;55274;43.060;25.618;2024-03-23T11:44:16;6.90;;;1.88;;
68353;SDS011;55274;43.060;25.618;2024-03-23T11:46:46;2.28;;;1.63;;
68353;SDS011;55274;43.060;25.618;2024-03-23T11:49:22;2.53;;;1.42;;
68353;SDS011;55274;43.060;25.618;2024-03-23T11:54:14;4.15;;;1.50;;
68353;SDS011;55274;43.060;25.618;2024-03-23T11:56:40;3.50;;;1.50;;
68353;SDS011;55274;43.060;25.618;2024-03-23T11:59:37;2.95;;;1.40;;
68353;SDS011;55274;43.060;25.618;2024-03-23T12:02:11;3.13;;;1.63;;
68353;SDS011;55274;43.060;25.618;2024-03-23T12:04:41;3.22;;;1.75;;
68353;SDS011;55274;43.060;25.618;2024-03-23T12:09:36;1.98;;;1.52;;
68353;SDS011;55274;43.060;25.618;2024-03-23T12:12:05;3.90;;;1.60;;
68353;SDS011;55274;43.060;25.618;2024-03-23T12:14:35;4.65;;;1.50;;
68353;SDS011;55274;43.060;25.618;2024-03-23T12:17:09;5.93;;;1.85;;
68353;SDS011;55274;43.060;25.618;2024-03-23T12:19:35;3.08;;;1.63;;
68353;SDS011;55274;43.060;25.618;2024-03-23T12:22:02;3.30;;;1.80;;
68353;SDS011;55274;43.060;25.618;2024-03-23T12:24:29;2.45;;;1.65;;
68353;SDS011;55274;43.060;25.618;2024-03-23T12:26:55;5.60;;;1.75;;
68353;SDS011;55274;43.060;25.618;2024-03-23T12:29:25;3.55;;;1.90;;
68353;SDS011;55274;43.060;25.618;2024-03-23T12:31:53;2.67;;;1.40;;
68353;SDS011;55274;43.060;25.618;2024-03-23T12:34:19;2.53;;;1.77;;
68353;SDS011;55274;43.060;25.618;2024-03-23T12:36:44;2.67;;;1.40;;
68353;SDS011;55274;43.060;25.618;2024-03-23T12:39:10;3.97;;;1.60;;
68353;SDS011;55274;43.060;25.618;2024-03-23T12:41:36;2.10;;;1.40;;
68353;SDS011;55274;43.060;25.618;2024-03-23T12:44:01;3.00;;;1.52;;
68353;SDS011;55274;43.060;25.618;2024-03-23T12:46:27;3.15;;;1.65;;
68353;SDS011;55274;43.060;25.618;2024-03-23T12:48:53;6.53;;;1.75;;
68353;SDS011;55274;43.060;25.618;2024-03-23T12:51:19;2.33;;;1.50;;
68353;SDS011;55274;43.060;25.618;2024-03-23T12:53:44;7.85;;;2.20;;
68353;SDS011;55274;43.060;25.618;2024-03-23T12:56:13;3.92;;;1.80;;
68353;SDS011;55274;43.060;25.618;2024-03-23T12:58:39;5.03;;;1.58;;
68353;SDS011;55274;43.060;25.618;2024-03-23T13:01:04;3.58;;;1.60;;
68353;SDS011;55274;43.060;25.618;2024-03-23T13:03:31;2.03;;;1.38;;
68353;SDS011;55274;43.060;25.618;2024-03-23T13:05:57;2.22;;;1.42;;
68353;SDS011;55274;43.060;25.618;2024-03-23T13:08:23;5.93;;;1.90;;
68353;SDS011;55274;43.060;25.618;2024-03-23T13:10:51;5.60;;;1.60;;
68353;SDS011;55274;43.060;25.618;2024-03-23T13:13:17;8.85;;;1.63;;
68353;SDS011;55274;43.060;25.618;2024-03-23T13:15:49;9.65;;;2.35;;
68353;SDS011;55274;43.060;25.618;2024-03-23T13:18:17;3.42;;;1.48;;
68353;SDS011;55274;43.060;25.618;2024-03-23T13:20:43;3.38;;;1.65;;
68353;SDS011;55274;43.060;25.618;2024-03-23T13:23:09;3.00;;;1.60;;
68353;SDS011;55274;43.060;25.618;2024-03-23T13:25:35;3.90;;;1.55;;
68353;SDS011;55274;43.060;25.618;2024-03-23T13:28:02;3.08;;;1.50;;
68353;SDS011;55274;43.060;25.618;2024-03-23T13:30:28;2.92;;;1.48;;
68353;SDS011;55274;43.060;25.618;2024-03-23T13:32:54;3.80;;;1.42;;
68353;SDS011;55274;43.060;25.618;2024-03-23T13:35:20;2.80;;;1.70;;
68353;SDS011;55274;43.060;25.618;2024-03-23T13:37:47;4.13;;;1.52;;
68353;SDS011;55274;43.060;25.618;2024-03-23T13:40:13;3.42;;;1.80;;
68353;SDS011;55274;43.060;25.618;2024-03-23T13:42:39;2.83;;;1.75;;
68353;SDS011;55274;43.060;25.618;2024-03-23T13:45:05;2.67;;;1.60;;
68353;SDS011;55274;43.060;25.618;2024-03-23T13:47:31;3.80;;;1.80;;
68353;SDS011;55274;43.060;25.618;2024-03-23T13:49:57;2.97;;;1.75;;
68353;SDS011;55274;43.060;25.618;2024-03-23T13:52:23;3.30;;;1.67;;
68353;SDS011;55274;43.060;25.618;2024-03-23T13:54:51;3.22;;;1.38;;
68353;SDS011;55274;43.060;25.618;2024-03-23T13:57:17;5.38;;;1.50;;
68353;SDS011;55274;43.060;25.618;2024-03-23T13:59:46;4.88;;;1.73;;
68353;SDS011;55274;43.060;25.618;2024-03-23T14:02:14;3.50;;;1.67;;
68353;SDS011;55274;43.060;25.618;2024-03-23T14:04:40;3.65;;;1.50;;
68353;SDS011;55274;43.060;25.618;2024-03-23T14:07:05;2.15;;;1.42;;
68353;SDS011;55274;43.060;25.618;2024-03-23T14:09:32;3.05;;;1.48;;
68353;SDS011;55274;43.060;25.618;2024-03-23T14:11:58;4.90;;;1.50;;
68353;SDS011;55274;43.060;25.618;2024-03-23T14:14:25;6.45;;;1.58;;
68353;SDS011;55274;43.060;25.618;2024-03-23T14:16:51;6.57;;;2.00;;
68353;SDS011;55274;43.060;25.618;2024-03-23T14:19:18;9.27;;;2.00;;
68353;SDS011;55274;43.060;25.618;2024-03-23T14:21:44;6.05;;;1.50;;
68353;SDS011;55274;43.060;25.618;2024-03-23T14:24:10;4.47;;;1.65;;
68353;SDS011;55274;43.060;25.618;2024-03-23T14:26:35;4.25;;;1.48;;
68353;SDS011;55274;43.060;25.618;2024-03-23T14:29:01;6.95;;;1.88;;
68353;SDS011;55274;43.060;25.618;2024-03-23T14:31:28;4.82;;;1.73;;
68353;SDS011;55274;43.060;25.618;2024-03-23T14:33:54;5.22;;;1.63;;
68353;SDS011;55274;43.060;25.618;2024-03-23T14:36:20;2.72;;;1.60;;
68353;SDS011;55274;43.060;25.618;2024-03-23T14:38:48;4.10;;;1.70;;
68353;SDS011;55274;43.060;25.618;2024-03-23T14:41:14;7.88;;;2.03;;
68353;SDS011;55274;43.060;25.618;2024-03-23T14:43:40;5.55;;;1.52;;
68353;SDS011;55274;43.060;25.618;2024-03-23T14:46:09;6.15;;;1.70;;
68353;SDS011;55274;43.060;25.618;2024-03-23T14:48:36;7.07;;;1.92;;
68353;SDS011;55274;43.060;25.618;2024-03-23T14:51:03;4.40;;;1.70;;
68353;SDS011;55274;43.060;25.618;2024-03-23T14:53:33;4.05;;;1.52;;
68353;SDS011;55274;43.060;25.618;2024-03-23T14:56:01;9.45;;;1.85;;
68353;SDS011;55274;43.060;25.618;2024-03-23T14:58:27;7.72;;;1.83;;
68353;SDS011;55274;43.060;25.618;2024-03-23T15:01:04;4.80;;;2.22;;
68353;SDS011;55274;43.060;25.618;2024-03-23T15:03:34;2.92;;;1.52;;
68353;SDS011;55274;43.060;25.618;2024-03-23T15:06:01;3.13;;;1.27;;
68353;SDS011;55274;43.060;25.618;2024-03-23T15:08:27;3.25;;;1.52;;
68353;SDS011;55274;43.060;25.618;2024-03-23T15:10:53;2.95;;;1.67;;
68353;SDS011;55274;43.060;25.618;2024-03-23T15:13:19;6.10;;;1.70;;
68353;SDS011;55274;43.060;25.618;2024-03-23T15:15:48;7.13;;;1.85;;
68353;SDS011;55274;43.060;25.618;2024-03-23T15:18:14;5.13;;;1.80;;
68353;SDS011;55274;43.060;25.618;2024-03-23T15:20:53;3.38;;;1.25;;
68353;SDS011;55274;43.060;25.618;2024-03-23T15:23:19;7.57;;;1.73;;
68353;SDS011;55274;43.060;25.618;2024-03-23T15:25:45;5.70;;;1.67;;
68353;SDS011;55274;43.060;25.618;2024-03-23T15:28:11;4.47;;;1.60;;
68353;SDS011;55274;43.060;25.618;2024-03-23T15:30:36;2.40;;;1.40;;
68353;SDS011;55274;43.060;25.618;2024-03-23T15:33:02;5.35;;;1.70;;
68353;SDS011;55274;43.060;25.618;2024-03-23T15:35:28;19.75;;;2.58;;
68353;SDS011;55274;43.060;25.618;2024-03-23T15:37:54;12.00;;;2.15;;